createdAt,value
2023-01-30T00:00:27.645Z,62.7
2023-01-30T00:02:11.331Z,62.8
2023-01-30T00:03:55.030Z,62.8
2023-01-30T00:05:38.791Z,62.9
2023-01-30T00:07:22.430Z,63
2023-01-30T00:09:06.145Z,63
2023-01-30T00:10:49.868Z,63
2023-01-30T00:12:33.557Z,63.1
2023-01-30T00:14:17.247Z,63.1
2023-01-30T00:16:00.968Z,63.1
2023-01-30T00:17:44.662Z,63.2
2023-01-30T00:19:28.481Z,63.2
2023-01-30T00:21:12.143Z,63.2
2023-01-30T00:22:55.759Z,63.2
2023-01-30T00:24:39.589Z,63.3
2023-01-30T00:26:23.318Z,63.3
2023-01-30T00:28:07.014Z,63
2023-01-30T00:29:50.658Z,62.9
2023-01-30T00:31:34.379Z,62.9
2023-01-30T00:33:18.066Z,62.7
2023-01-30T00:35:01.868Z,62.5
2023-01-30T00:36:45.383Z,62.6
2023-01-30T00:38:29.273Z,62.6
2023-01-30T00:40:12.975Z,62.7
2023-01-30T00:41:56.602Z,62.7
2023-01-30T00:43:40.368Z,62.6
2023-01-30T00:45:23.964Z,62.5
2023-01-30T00:47:07.601Z,62.7
2023-01-30T00:48:51.408Z,62.7
2023-01-30T00:50:35.112Z,62.8
2023-01-30T00:52:18.884Z,62.8
2023-01-30T00:54:02.590Z,62.9
2023-01-30T00:55:46.301Z,62.6
2023-01-30T00:57:29.972Z,62.4
2023-01-30T00:59:13.604Z,61.9
2023-01-30T01:00:57.414Z,61.5
2023-01-30T01:02:41.101Z,61.8
2023-01-30T01:04:24.803Z,62
2023-01-30T01:06:08.458Z,62.1
2023-01-30T01:07:52.209Z,62.2
2023-01-30T01:09:35.875Z,62.3
2023-01-30T01:11:19.598Z,62.2
2023-01-30T01:13:03.342Z,61.9
2023-01-30T01:14:46.830Z,61.6
2023-01-30T01:16:30.760Z,62
2023-01-30T01:18:14.372Z,62.1
2023-01-30T01:19:58.121Z,62.2
2023-01-30T01:21:41.835Z,62.3
2023-01-30T01:23:25.340Z,62.3
2023-01-30T01:25:09.051Z,62.4
2023-01-30T01:26:52.918Z,62.5
2023-01-30T01:28:36.590Z,62.6
2023-01-30T01:30:20.289Z,62.7
2023-01-30T01:32:04.039Z,62.7
2023-01-30T01:33:47.755Z,62.8
2023-01-30T01:35:31.430Z,62.9
2023-01-30T01:37:15.135Z,62.9
2023-01-30T01:38:58.743Z,63
2023-01-30T01:40:42.572Z,63
2023-01-30T01:42:26.259Z,63.1
2023-01-30T01:44:09.970Z,63.1
2023-01-30T01:45:53.604Z,63.2
2023-01-30T01:47:37.356Z,63.3
2023-01-30T01:49:20.989Z,63.3
2023-01-30T01:51:04.715Z,63.4
2023-01-30T01:52:48.452Z,63.4
2023-01-30T01:54:32.002Z,63.5
2023-01-30T01:56:15.858Z,63.5
2023-01-30T01:57:59.400Z,63.6
2023-01-30T01:59:43.307Z,63.6
2023-01-30T02:01:26.957Z,63.6
2023-01-30T02:03:10.641Z,63.7
2023-01-30T02:04:54.376Z,63.7
2023-01-30T02:06:38.034Z,63.8
2023-01-30T02:08:21.743Z,63.9
2023-01-30T02:10:05.499Z,63.9
2023-01-30T02:11:49.127Z,63.9
2023-01-30T02:13:32.904Z,64
2023-01-30T02:15:16.439Z,64
2023-01-30T02:17:00.168Z,64
2023-01-30T02:18:43.985Z,64
2023-01-30T02:20:27.759Z,64.1
2023-01-30T02:22:11.403Z,64.1
2023-01-30T02:23:55.124Z,64.2
2023-01-30T02:25:38.782Z,64.2
2023-01-30T02:27:22.496Z,64.2
2023-01-30T02:29:06.118Z,64.2
2023-01-30T02:30:49.913Z,64.2
2023-01-30T02:32:33.638Z,64.2
2023-01-30T02:34:17.350Z,64.3
2023-01-30T02:36:00.978Z,64.3
2023-01-30T02:37:44.918Z,64.3
2023-01-30T02:39:28.352Z,64.4
2023-01-30T02:41:12.188Z,64.4
2023-01-30T02:42:55.845Z,64.5
2023-01-30T02:44:39.570Z,64.5
2023-01-30T02:46:23.245Z,64.5
2023-01-30T02:48:06.931Z,64.6
2023-01-30T02:49:50.636Z,64.6
2023-01-30T02:51:34.360Z,64.5
2023-01-30T02:53:18.112Z,64.6
2023-01-30T02:55:01.780Z,64.6
2023-01-30T02:56:45.280Z,64.7
2023-01-30T02:58:29.149Z,64.7
2023-01-30T03:00:12.832Z,64.7
2023-01-30T03:01:56.612Z,64.7
2023-01-30T03:03:40.305Z,64.7
2023-01-30T03:05:23.976Z,64.8
2023-01-30T03:07:07.701Z,64.8
2023-01-30T03:08:51.335Z,64.8
2023-01-30T03:10:35.104Z,64.8
2023-01-30T03:12:18.758Z,64.7
2023-01-30T03:14:02.492Z,64.8
2023-01-30T03:15:46.104Z,64.7
2023-01-30T03:17:29.940Z,64.6
2023-01-30T03:19:13.522Z,64.6
2023-01-30T03:20:57.425Z,64.5
2023-01-30T03:22:41.057Z,64.6
2023-01-30T03:24:24.706Z,64.6
2023-01-30T03:26:08.411Z,64.6
2023-01-30T03:27:52.094Z,64.6
2023-01-30T03:31:19.421Z,64.5
2023-01-30T03:33:03.208Z,64.5
2023-01-30T03:34:46.897Z,64.5
2023-01-30T03:36:30.608Z,64.6
2023-01-30T03:38:14.163Z,64.5
2023-01-30T03:39:58.030Z,64.5
2023-01-30T03:41:41.721Z,64.5
2023-01-30T03:43:25.322Z,64.5
2023-01-30T03:45:09.022Z,64.5
2023-01-30T03:46:52.744Z,64.4
2023-01-30T03:48:36.537Z,64.5
2023-01-30T03:50:20.252Z,64.4
2023-01-30T03:52:03.853Z,64.4
2023-01-30T03:53:47.566Z,64.5
2023-01-30T03:55:31.341Z,64.4
2023-01-30T03:57:15.026Z,64.4
2023-01-30T03:58:58.676Z,64.4
2023-01-30T04:00:42.403Z,64.4
2023-01-30T04:02:25.977Z,64.3
2023-01-30T04:04:09.740Z,64.4
2023-01-30T04:05:53.514Z,64.4
2023-01-30T04:07:37.254Z,64.3
2023-01-30T04:09:21.040Z,64.2
2023-01-30T04:11:04.627Z,64.3
2023-01-30T04:12:48.359Z,64.4
2023-01-30T04:14:32.031Z,64.3
2023-01-30T04:16:15.721Z,64.4
2023-01-30T04:17:59.435Z,64.3
2023-01-30T04:19:43.007Z,64.2
2023-01-30T04:21:26.874Z,64.3
2023-01-30T04:23:10.553Z,64.3
2023-01-30T04:24:54.264Z,64.3
2023-01-30T04:26:37.814Z,64.2
2023-01-30T04:28:21.665Z,64.3
2023-01-30T04:30:05.224Z,64.4
2023-01-30T04:31:49.046Z,64.3
2023-01-30T04:33:32.802Z,64.4
2023-01-30T04:35:16.361Z,64.5
2023-01-30T04:37:00.159Z,64.5
2023-01-30T04:38:43.728Z,64.4
2023-01-30T04:40:27.435Z,64.4
2023-01-30T04:42:11.209Z,64.5
2023-01-30T04:43:54.955Z,64.4
2023-01-30T04:45:38.746Z,64.4
2023-01-30T04:47:22.425Z,64.4
2023-01-30T04:49:05.975Z,64.5
2023-01-30T04:50:49.645Z,64.5
2023-01-30T04:52:33.351Z,64.4
2023-01-30T04:54:17.151Z,64.3
2023-01-30T04:56:00.894Z,64.5
2023-01-30T04:57:44.573Z,64.4
2023-01-30T04:59:28.175Z,64.4
2023-01-30T05:01:11.903Z,64.4
2023-01-30T05:02:55.575Z,64.4
2023-01-30T05:04:39.493Z,64.3
2023-01-30T05:06:23.134Z,64.4
2023-01-30T05:08:06.704Z,64.5
2023-01-30T05:09:50.606Z,64.3
2023-01-30T05:11:34.201Z,64.4
2023-01-30T05:13:17.981Z,64.3
2023-01-30T05:15:01.683Z,64.3
2023-01-30T05:16:45.248Z,64.4
2023-01-30T05:18:28.997Z,64.3
2023-01-30T05:20:12.617Z,64.4
2023-01-30T05:21:56.437Z,64.4
2023-01-30T05:23:40.031Z,64.2
2023-01-30T05:25:23.839Z,64.3
2023-01-30T05:27:07.577Z,64.3
2023-01-30T05:28:51.263Z,64.3
2023-01-30T05:30:34.909Z,64.3
2023-01-30T05:32:18.741Z,64.4
2023-01-30T05:34:02.265Z,64.3
2023-01-30T05:35:46.055Z,64.4
2023-01-30T05:37:29.621Z,64.3
2023-01-30T05:39:13.329Z,64.3
2023-01-30T05:40:57.183Z,64.3
2023-01-30T05:42:40.889Z,64.4
2023-01-30T05:44:24.498Z,64.3
2023-01-30T05:46:08.296Z,64.3
2023-01-30T05:47:51.834Z,64.2
2023-01-30T05:49:35.716Z,64.2
2023-01-30T05:51:19.332Z,64.2
2023-01-30T05:53:03.034Z,64.3
2023-01-30T05:54:46.812Z,64.3
2023-01-30T05:56:30.389Z,64.3
2023-01-30T05:58:14.215Z,64.3
2023-01-30T05:59:57.821Z,64.3
2023-01-30T06:01:41.567Z,64.2
2023-01-30T06:03:25.249Z,64.4
2023-01-30T06:05:08.952Z,64.5
2023-01-30T06:06:52.568Z,64.3
2023-01-30T06:08:36.390Z,64.5
2023-01-30T06:10:20.029Z,64.4
2023-01-30T06:12:03.775Z,64.2
2023-01-30T06:13:47.485Z,64.2
2023-01-30T06:15:31.266Z,64.3
2023-01-30T06:17:14.887Z,64.2
2023-01-30T06:18:58.613Z,64.3
2023-01-30T06:20:42.197Z,64.2
2023-01-30T06:22:26.049Z,64.3
2023-01-30T06:24:09.822Z,64.2
2023-01-30T06:25:53.425Z,64.4
2023-01-30T06:27:37.151Z,64.3
2023-01-30T06:29:20.755Z,64.4
2023-01-30T06:31:04.449Z,64.4
2023-01-30T06:32:48.116Z,64.5
2023-01-30T06:34:31.815Z,64.5
2023-01-30T06:36:15.674Z,64.5
2023-01-30T06:37:59.311Z,64.6
2023-01-30T06:39:43.041Z,64.6
2023-01-30T06:41:26.620Z,64.4
2023-01-30T06:43:10.334Z,64.4
2023-01-30T06:44:54.162Z,64.4
2023-01-30T06:46:37.926Z,64.3
2023-01-30T06:48:21.442Z,64.3
2023-01-30T06:50:05.136Z,63.9
2023-01-30T06:51:48.958Z,63.9
2023-01-30T06:53:32.702Z,63.9
2023-01-30T06:55:16.316Z,64.6
2023-01-30T06:57:00.073Z,64.7
2023-01-30T06:58:43.750Z,64.7
2023-01-30T07:00:27.375Z,64.8
2023-01-30T07:02:11.063Z,64.8
2023-01-30T07:03:54.868Z,64.7
2023-01-30T07:05:38.456Z,64.8
2023-01-30T07:07:22.326Z,64.5
2023-01-30T07:09:06.014Z,64.6
2023-01-30T07:10:49.573Z,64.6
2023-01-30T07:12:33.355Z,64.9
2023-01-30T07:14:17.016Z,65
2023-01-30T07:16:00.779Z,65.1
2023-01-30T07:17:44.525Z,65.2
2023-01-30T07:19:28.109Z,65.2
2023-01-30T07:21:11.950Z,65.2
2023-01-30T07:22:55.483Z,65.3
2023-01-30T07:24:39.188Z,65.3
2023-01-30T07:26:22.892Z,65.4
2023-01-30T07:28:06.624Z,65.3
2023-01-30T07:29:50.352Z,65
2023-01-30T07:31:34.039Z,64.8
2023-01-30T07:33:17.835Z,64.8
2023-01-30T07:35:01.406Z,64.7
2023-01-30T07:36:45.110Z,64.7
2023-01-30T07:38:28.875Z,64.7
2023-01-30T07:40:12.630Z,64.7
2023-01-30T07:41:56.228Z,64.7
2023-01-30T07:45:23.645Z,64.6
2023-01-30T07:47:07.418Z,64.7
2023-01-30T07:48:51.090Z,64.6
2023-01-30T07:50:34.742Z,64.5
2023-01-30T07:52:18.543Z,64.6
2023-01-30T07:54:02.264Z,64.6
2023-01-30T07:55:45.981Z,64.5
2023-01-30T07:57:29.630Z,64.4
2023-01-30T07:59:13.287Z,64.4
2023-01-30T08:00:57.078Z,64.4
2023-01-30T08:02:40.684Z,64.2
2023-01-30T08:04:24.400Z,64.1
2023-01-30T08:06:08.192Z,64
2023-01-30T08:07:51.850Z,63.8
2023-01-30T08:09:35.631Z,63.7
2023-01-30T08:11:19.362Z,63.7
2023-01-30T08:13:02.858Z,63.8
2023-01-30T08:14:46.608Z,63.4
2023-01-30T08:16:30.366Z,62.7
2023-01-30T08:18:14.156Z,62.8
2023-01-30T08:19:57.801Z,63.1
2023-01-30T08:21:41.517Z,63.2
2023-01-30T08:23:25.168Z,63.3
2023-01-30T08:25:08.779Z,63.3
2023-01-30T08:26:52.622Z,63.3
2023-01-30T08:28:36.193Z,63.5
2023-01-30T08:30:19.988Z,63.5
2023-01-30T08:32:03.670Z,63.4
2023-01-30T08:33:47.489Z,63.4
2023-01-30T08:35:30.998Z,63.5
2023-01-30T08:37:14.683Z,63.5
2023-01-30T08:38:58.528Z,63.5
2023-01-30T08:40:42.099Z,63.4
2023-01-30T08:42:25.922Z,63.4
2023-01-30T08:44:09.503Z,63.6
2023-01-30T08:45:53.381Z,63.3
2023-01-30T08:47:36.939Z,63.1
2023-01-30T08:49:20.754Z,62.9
2023-01-30T08:51:04.393Z,62.8
2023-01-30T08:52:48.199Z,62.5
2023-01-30T08:54:31.716Z,63.2
2023-01-30T08:56:15.552Z,63.3
2023-01-30T08:57:59.299Z,63.4
2023-01-30T08:59:43.030Z,63.4
2023-01-30T09:01:26.564Z,63
2023-01-30T09:03:10.251Z,63
2023-01-30T09:04:54.124Z,62.9
2023-01-30T09:06:37.712Z,62.8
2023-01-30T09:08:21.478Z,62.7
2023-01-30T09:10:05.136Z,62.6
2023-01-30T09:11:48.971Z,62.7
2023-01-30T09:13:32.539Z,63
2023-01-30T09:15:16.250Z,63.1
2023-01-30T09:16:59.991Z,63
2023-01-30T09:18:43.555Z,63.1
2023-01-30T09:20:27.357Z,63.1
2023-01-30T09:22:11.104Z,63.1
2023-01-30T09:23:54.660Z,63.1
2023-01-30T09:25:38.485Z,63
2023-01-30T09:27:22.178Z,63.1
2023-01-30T09:29:05.763Z,63.1
2023-01-30T09:30:49.595Z,63.1
2023-01-30T09:32:33.313Z,63.2
2023-01-30T09:34:16.864Z,63.2
2023-01-30T09:36:00.649Z,63.2
2023-01-30T09:37:44.351Z,63.3
2023-01-30T09:39:28.142Z,63.3
2023-01-30T09:41:11.848Z,63.4
2023-01-30T09:42:55.457Z,63.4
2023-01-30T09:44:39.222Z,63.4
2023-01-30T09:46:22.890Z,63.4
2023-01-30T09:48:06.668Z,63.2
2023-01-30T09:49:50.301Z,63
2023-01-30T09:51:33.928Z,63
2023-01-30T09:53:17.747Z,63.1
2023-01-30T09:55:01.423Z,63.2
2023-01-30T09:56:45.006Z,63.3
2023-01-30T09:58:28.866Z,63.2
2023-01-30T10:00:12.410Z,63.2
2023-01-30T10:01:56.190Z,63.3
2023-01-30T10:03:39.956Z,63.3
2023-01-30T10:05:23.520Z,63.1
2023-01-30T10:07:07.234Z,63
2023-01-30T10:08:50.924Z,63
2023-01-30T10:10:34.660Z,62.9
2023-01-30T10:12:18.518Z,62.9
2023-01-30T10:14:02.231Z,62.9
2023-01-30T10:15:45.754Z,62.9
2023-01-30T10:17:29.649Z,62.8
2023-01-30T10:19:13.220Z,62.8
2023-01-30T10:20:56.842Z,62.9
2023-01-30T10:22:40.782Z,64.7
2023-01-30T10:24:24.406Z,64.9
2023-01-30T10:26:08.029Z,64.6
2023-01-30T10:27:51.820Z,64.3
2023-01-30T10:29:35.526Z,63.9
2023-01-30T10:31:19.233Z,64
2023-01-30T10:33:02.930Z,63.5
2023-01-30T10:34:46.631Z,63.5
2023-01-30T10:36:30.354Z,63.4
2023-01-30T10:38:14.001Z,63.3
2023-01-30T10:39:57.728Z,63.3
2023-01-30T10:41:41.405Z,63.3
2023-01-30T10:43:25.188Z,63.2
2023-01-30T10:45:08.790Z,63.2
2023-01-30T10:46:52.597Z,63.1
2023-01-30T10:48:36.085Z,63.1
2023-01-30T10:50:20.007Z,63.1
2023-01-30T10:52:03.692Z,63
2023-01-30T10:53:47.190Z,63
2023-01-30T10:55:30.919Z,63.1
2023-01-30T10:57:14.750Z,62.7
2023-01-30T10:58:58.302Z,62.3
2023-01-30T11:00:42.052Z,62.4
2023-01-30T11:02:25.715Z,64
2023-01-30T11:04:09.485Z,64.5
2023-01-30T11:05:53.278Z,64.2
2023-01-30T11:07:36.952Z,64.6
2023-01-30T11:09:20.716Z,64.7
2023-01-30T11:11:04.379Z,66
2023-01-30T11:12:47.929Z,66.8
2023-01-30T11:14:31.625Z,68
2023-01-30T11:16:15.325Z,69
2023-01-30T11:17:59.093Z,68.4
2023-01-30T11:19:42.742Z,67.6
2023-01-30T11:21:26.581Z,66
2023-01-30T11:23:10.201Z,65.6
2023-01-30T11:24:54.005Z,65.4
2023-01-30T11:26:37.553Z,65.1
2023-01-30T11:28:21.382Z,65.1
2023-01-30T11:30:05.027Z,65.4
2023-01-30T11:31:48.850Z,64.8
2023-01-30T11:33:32.459Z,66
2023-01-30T11:35:16.226Z,66.4
2023-01-30T11:36:59.754Z,66.5
2023-01-30T11:38:43.601Z,65.6
2023-01-30T11:40:27.165Z,65.4
2023-01-30T11:42:10.916Z,65.3
2023-01-30T11:43:54.647Z,65.5
2023-01-30T11:45:38.448Z,65.7
2023-01-30T11:47:21.995Z,65.5
2023-01-30T11:49:05.758Z,65.6
2023-01-30T11:50:49.541Z,65.6
2023-01-30T11:52:33.151Z,65.5
2023-01-30T11:54:16.969Z,65.4
2023-01-30T11:56:00.598Z,65.2
2023-01-30T11:57:44.233Z,65.4
2023-01-30T11:59:28.038Z,65.3
2023-01-30T12:01:11.608Z,65.3
2023-01-30T12:02:55.302Z,65.2
2023-01-30T12:04:39.115Z,65.2
2023-01-30T12:06:22.876Z,65.3
2023-01-30T12:08:06.482Z,65.1
2023-01-30T12:09:50.187Z,64.3
2023-01-30T12:11:33.989Z,63.8
2023-01-30T12:15:01.211Z,63.7
2023-01-30T12:16:45.116Z,63.5
2023-01-30T12:18:28.812Z,64.1
2023-01-30T12:20:12.321Z,64.7
2023-01-30T12:21:56.102Z,64.8
2023-01-30T12:23:39.744Z,64.8
2023-01-30T12:25:23.566Z,64.8
2023-01-30T12:27:07.257Z,64.7
2023-01-30T12:28:51.005Z,64.8
2023-01-30T12:30:34.719Z,64.8
2023-01-30T12:32:18.252Z,64.7
2023-01-30T12:34:01.950Z,64.8
2023-01-30T12:35:46.300Z,64.8
2023-01-30T12:37:29.355Z,64.8
2023-01-30T12:39:13.065Z,64.8
2023-01-30T12:40:56.810Z,64.8
2023-01-30T12:42:40.459Z,64.7
2023-01-30T12:44:24.163Z,64.7
2023-01-30T12:46:08.003Z,64.7
2023-01-30T12:47:51.727Z,64.7
2023-01-30T12:49:35.402Z,64.7
2023-01-30T12:51:18.977Z,64.7
2023-01-30T12:53:02.684Z,64.7
2023-01-30T12:54:46.611Z,64.7
2023-01-30T12:56:30.280Z,64.6
2023-01-30T12:58:13.910Z,64.6
2023-01-30T12:59:57.654Z,64.5
2023-01-30T13:01:41.442Z,64.5
2023-01-30T13:03:25.034Z,64.5
2023-01-30T13:05:08.748Z,64.6
2023-01-30T13:06:52.298Z,64.6
2023-01-30T13:08:36.164Z,64.6
2023-01-30T13:10:19.845Z,64.5
2023-01-30T13:12:03.529Z,64.4
2023-01-30T13:13:47.255Z,64
2023-01-30T13:15:30.961Z,63.9
2023-01-30T13:17:14.509Z,63.8
2023-01-30T13:18:58.215Z,63.9
2023-01-30T13:20:42.057Z,63.9
2023-01-30T13:22:25.618Z,63.8
2023-01-30T13:24:09.469Z,63.9
2023-01-30T13:25:53.187Z,63.8
2023-01-30T13:27:36.778Z,63.9
2023-01-30T13:29:20.557Z,63.9
2023-01-30T13:31:04.128Z,63.9
2023-01-30T13:32:47.839Z,63.9
2023-01-30T13:34:31.694Z,64
2023-01-30T13:36:15.354Z,63.9
2023-01-30T13:37:59.075Z,64
2023-01-30T13:39:42.763Z,64
2023-01-30T13:41:26.352Z,64
2023-01-30T13:43:10.071Z,63.9
2023-01-30T13:44:53.920Z,63.9
2023-01-30T13:46:37.582Z,63.9
2023-01-30T13:48:21.326Z,64
2023-01-30T13:51:48.738Z,64
2023-01-30T13:53:32.259Z,64
2023-01-30T13:55:15.976Z,64
2023-01-30T13:56:59.673Z,64
2023-01-30T13:58:43.502Z,64
2023-01-30T14:00:27.169Z,64
2023-01-30T14:02:10.824Z,63.9
2023-01-30T14:03:54.684Z,64
2023-01-30T14:05:38.296Z,64
2023-01-30T14:07:22.016Z,63.9
2023-01-30T14:09:05.786Z,64
2023-01-30T14:12:33.209Z,64
2023-01-30T14:14:16.803Z,64
2023-01-30T14:17:44.240Z,63.9
2023-01-30T14:19:27.956Z,63.8
2023-01-30T14:21:11.545Z,63.6
2023-01-30T14:23:02.238Z,60.5
2023-01-30T14:24:39.083Z,56
2023-01-30T14:26:22.747Z,60.7
2023-01-30T14:28:06.329Z,63.9
2023-01-30T14:29:50.025Z,62.7
2023-01-30T14:31:33.842Z,61.6
2023-01-30T14:33:17.604Z,61.1
2023-01-30T14:35:01.284Z,61
2023-01-30T14:36:44.975Z,61.2
2023-01-30T14:38:28.679Z,61.5
2023-01-30T14:40:12.233Z,61.5
2023-01-30T14:41:56.064Z,61.6
2023-01-30T14:43:39.799Z,61.8
2023-01-30T14:45:23.539Z,61.8
2023-01-30T14:47:07.200Z,61.9
2023-01-30T14:48:50.825Z,61.8
2023-01-30T14:50:34.451Z,62
2023-01-30T14:52:18.259Z,62.1
2023-01-30T14:54:01.863Z,62.1
2023-01-30T14:55:45.559Z,62.3
2023-01-30T14:57:29.443Z,62.4
2023-01-30T14:59:13.133Z,62.4
2023-01-30T15:00:56.837Z,62.4
2023-01-30T15:02:40.378Z,62.4
2023-01-30T15:04:24.324Z,62.4
2023-01-30T15:06:07.950Z,62.4
2023-01-30T15:07:51.644Z,62.4
2023-01-30T15:09:35.348Z,62.3
2023-01-30T15:11:19.100Z,62.1
2023-01-30T15:13:02.772Z,62
2023-01-30T15:14:46.497Z,62.1
2023-01-30T15:16:30.190Z,62.1
2023-01-30T15:18:13.847Z,62.1
2023-01-30T15:19:57.549Z,62.1
2023-01-30T15:21:41.365Z,62.2
2023-01-30T15:23:25.025Z,62.2
2023-01-30T15:25:08.510Z,62.2
2023-01-30T15:26:52.401Z,62.1
2023-01-30T15:28:35.977Z,62.2
2023-01-30T15:30:19.809Z,62.1
2023-01-30T15:32:03.497Z,62
2023-01-30T15:33:47.074Z,62.5
2023-01-30T15:35:30.904Z,62.7
2023-01-30T15:37:14.607Z,62.6
2023-01-30T15:38:58.323Z,62.4
2023-01-30T15:40:42.023Z,62.4
2023-01-30T15:42:25.660Z,62.4
2023-01-30T15:44:09.446Z,62.4
2023-01-30T15:45:53.112Z,62.4
2023-01-30T15:47:36.812Z,62.4
2023-01-30T15:49:20.508Z,62.4
2023-01-30T15:51:04.079Z,62.5
2023-01-30T15:52:47.912Z,62.4
2023-01-30T15:54:31.697Z,62.5
2023-01-30T15:56:15.176Z,62.5
2023-01-30T15:57:59.035Z,62.5
2023-01-30T15:59:42.574Z,62.5
2023-01-30T16:01:26.433Z,62.5
2023-01-30T16:03:10.162Z,62.5
2023-01-30T16:04:53.768Z,62.5
2023-01-30T16:06:37.513Z,62.4
2023-01-30T16:08:21.293Z,62.3
2023-01-30T16:10:04.798Z,62.2
2023-01-30T16:11:48.790Z,62.2
2023-01-30T16:13:32.269Z,62.1
2023-01-30T16:15:15.986Z,62
2023-01-30T16:16:59.686Z,61.8
2023-01-30T16:18:43.404Z,61.6
2023-01-30T16:20:27.116Z,61.5
2023-01-30T16:22:10.847Z,61.5
2023-01-30T16:23:54.407Z,61.4
2023-01-30T16:25:38.204Z,61.4
2023-01-30T16:27:21.809Z,61.3
2023-01-30T16:29:05.622Z,61.3
2023-01-30T16:30:49.220Z,61.4
2023-01-30T16:32:33.067Z,61.3
2023-01-30T16:34:16.611Z,61.2
2023-01-30T16:36:00.396Z,61.2
2023-01-30T16:37:44.029Z,61.2
2023-01-30T16:41:11.424Z,61.1
2023-01-30T16:42:55.142Z,61.1
2023-01-30T16:44:39.006Z,61.1
2023-01-30T16:46:22.643Z,61.1
2023-01-30T16:48:06.372Z,61.1
2023-01-30T16:49:49.998Z,62.1
2023-01-30T16:51:33.700Z,64.6
2023-01-30T16:53:17.341Z,65.2
2023-01-30T16:55:01.194Z,64.5
2023-01-30T16:56:44.906Z,64.6
2023-01-30T16:58:28.455Z,65
2023-01-30T17:00:12.293Z,64.9
2023-01-30T17:01:55.917Z,65
2023-01-30T17:03:39.572Z,65
2023-01-30T17:05:23.267Z,65
2023-01-30T17:07:07.208Z,65.1
2023-01-30T17:08:50.824Z,65.2
2023-01-30T17:10:34.589Z,65.2
2023-01-30T17:12:18.183Z,65.2
2023-01-30T17:14:01.780Z,65.4
2023-01-30T17:15:45.491Z,65.4
2023-01-30T17:17:29.189Z,65.5
2023-01-30T17:19:13.050Z,65.4
2023-01-30T17:20:56.707Z,65.4
2023-01-30T17:22:40.504Z,65.4
2023-01-30T17:24:24.158Z,65.3
2023-01-30T17:26:07.698Z,65.4
2023-01-30T17:27:51.532Z,65.4
2023-01-30T17:29:35.252Z,65.3
2023-01-30T17:31:18.936Z,65.4
2023-01-30T17:33:02.640Z,65.3
2023-01-30T17:34:46.372Z,65.3
2023-01-30T17:36:30.034Z,65.4
2023-01-30T17:38:13.680Z,65.4
2023-01-30T17:39:57.335Z,65.4
2023-01-30T17:41:41.195Z,65.4
2023-01-30T17:43:24.930Z,65.3
2023-01-30T17:45:08.426Z,65.2
2023-01-30T17:46:52.216Z,65.2
2023-01-30T17:48:35.934Z,65.2
2023-01-30T17:50:19.594Z,65.2
2023-01-30T17:52:03.526Z,65.2
2023-01-30T17:53:47.096Z,65.1
2023-01-30T17:55:30.726Z,65.1
2023-01-30T17:57:14.400Z,65.1
2023-01-30T17:58:58.075Z,64.9
2023-01-30T18:00:41.921Z,64.9
2023-01-30T18:02:25.600Z,64.9
2023-01-30T18:04:09.224Z,64.8
2023-01-30T18:05:53.046Z,64.9
2023-01-30T18:07:36.611Z,64.9
2023-01-30T18:09:20.413Z,64.8
2023-01-30T18:11:04.109Z,64.7
2023-01-30T18:12:47.911Z,64.8
2023-01-30T18:14:31.371Z,64.7
2023-01-30T18:16:15.278Z,64.6
2023-01-30T18:17:58.800Z,64.6
2023-01-30T18:19:42.672Z,64.6
2023-01-30T18:21:26.477Z,64.6
2023-01-30T18:23:10.076Z,64.6
2023-01-30T18:24:53.674Z,64.6
2023-01-30T18:26:37.467Z,65.1
2023-01-30T18:28:21.169Z,65
2023-01-30T18:30:04.792Z,64.9
2023-01-30T18:31:48.573Z,64.9
2023-01-30T18:33:32.091Z,65
2023-01-30T18:35:15.941Z,64.9
2023-01-30T18:36:59.680Z,64.9
2023-01-30T18:38:43.371Z,64.9
2023-01-30T18:40:27.077Z,64.8
2023-01-30T18:42:10.717Z,64.8
2023-01-30T18:43:54.470Z,64.8
2023-01-30T18:45:38.197Z,64.8
2023-01-30T18:47:21.880Z,64.8
2023-01-30T18:49:05.486Z,64.8
2023-01-30T18:50:49.316Z,64.7
2023-01-30T18:52:32.936Z,64.8
2023-01-30T18:54:16.548Z,64.8
2023-01-30T18:56:00.404Z,64.9
2023-01-30T18:57:43.935Z,64.8
2023-01-30T18:59:27.884Z,64.7
2023-01-30T19:01:11.389Z,64.7
2023-01-30T19:02:55.126Z,64.5
2023-01-30T19:04:38.744Z,64.5
2023-01-30T19:06:22.560Z,64.5
2023-01-30T19:08:06.325Z,64.4
2023-01-30T19:09:49.990Z,64.4
2023-01-30T19:11:33.772Z,64.3
2023-01-30T19:13:17.407Z,64.3
2023-01-30T19:15:00.950Z,64.3
2023-01-30T19:16:44.670Z,64.3
2023-01-30T19:18:28.377Z,64.2
2023-01-30T19:20:12.212Z,64.1
2023-01-30T19:21:55.933Z,64
2023-01-30T19:23:39.686Z,64
2023-01-30T19:25:23.242Z,64
2023-01-30T19:27:07.043Z,63.9
2023-01-30T19:28:50.747Z,63.9
2023-01-30T19:30:34.489Z,63.9
2023-01-30T19:32:18.138Z,63.9
2023-01-30T19:34:01.852Z,63.8
2023-01-30T19:35:45.483Z,63.7
2023-01-30T19:37:29.095Z,63.7
2023-01-30T19:39:12.957Z,63.7
2023-01-30T19:40:56.644Z,63.4
2023-01-30T19:42:40.334Z,63
2023-01-30T19:44:24.120Z,63
2023-01-30T19:46:07.807Z,63.1
2023-01-30T19:47:51.458Z,63.1
2023-01-30T19:49:35.153Z,63
2023-01-30T19:51:18.878Z,62.8
2023-01-30T19:53:02.577Z,62.6
2023-01-30T19:54:46.249Z,62.5
2023-01-30T19:56:30.012Z,62.5
2023-01-30T19:58:13.643Z,62.5
2023-01-30T19:59:57.391Z,62.5
2023-01-30T20:01:41.096Z,62.4
2023-01-30T20:03:24.772Z,62.4
2023-01-30T20:05:08.449Z,62.4
2023-01-30T20:06:52.191Z,62.8
2023-01-30T20:08:35.928Z,63.4
2023-01-30T20:10:19.446Z,62.2
2023-01-30T20:12:03.193Z,62.7
2023-01-30T20:13:46.876Z,63.2
2023-01-30T20:15:30.689Z,64.3
2023-01-30T20:17:14.422Z,64.6
2023-01-30T20:18:58.126Z,64
2023-01-30T20:20:41.803Z,63.1
2023-01-30T20:22:25.355Z,62
2023-01-30T20:24:09.250Z,51
2023-01-30T20:25:52.784Z,59.2
2023-01-30T20:27:36.611Z,62.2
2023-01-30T20:29:20.337Z,61.2
2023-01-30T20:31:04.046Z,60.7
2023-01-30T20:32:47.640Z,60.1
2023-01-30T20:34:31.317Z,60.4
2023-01-30T20:36:15.177Z,60.7
2023-01-30T20:37:58.696Z,60.7
2023-01-30T20:39:42.435Z,60.8
2023-01-30T20:41:26.103Z,60.8
2023-01-30T20:43:09.854Z,60.9
2023-01-30T20:44:53.701Z,60.9
2023-01-30T20:46:37.401Z,60.9
2023-01-30T20:48:21.075Z,60.9
2023-01-30T20:50:04.705Z,61
2023-01-30T20:51:48.455Z,61
2023-01-30T20:53:32.170Z,61
2023-01-30T20:55:15.837Z,61
2023-01-30T20:56:59.565Z,61.3
2023-01-30T20:58:43.298Z,61.5
2023-01-30T21:00:26.804Z,61.7
2023-01-30T21:02:10.692Z,61.5
2023-01-30T21:03:54.202Z,61
2023-01-30T21:05:38.070Z,61.1
2023-01-30T21:07:21.789Z,61.2
2023-01-30T21:09:05.352Z,61.2
2023-01-30T21:10:49.195Z,61.2
2023-01-30T21:12:32.871Z,61.3
2023-01-30T21:14:16.567Z,61.6
2023-01-30T21:16:00.298Z,61.6
2023-01-30T21:17:43.989Z,61.7
2023-01-30T21:19:27.667Z,61.3
2023-01-30T21:21:11.398Z,60.7
2023-01-30T21:22:54.967Z,60.9
2023-01-30T21:24:38.809Z,61.4
2023-01-30T21:26:22.349Z,61.6
2023-01-30T21:28:06.106Z,61.6
2023-01-30T21:29:49.952Z,61.5
2023-01-30T21:31:33.570Z,61.6
2023-01-30T21:33:17.297Z,61.6
2023-01-30T21:35:00.959Z,61.6
2023-01-30T21:36:44.712Z,61.4
2023-01-30T21:38:28.428Z,61.4
2023-01-30T21:40:12.106Z,61.4
2023-01-30T21:41:55.857Z,61.3
2023-01-30T21:43:39.530Z,61.4
2023-01-30T21:45:23.219Z,61.6
2023-01-30T21:47:06.991Z,61.6
2023-01-30T21:48:50.492Z,61.5
2023-01-30T21:50:34.341Z,61.5
2023-01-30T21:52:17.924Z,61.6
2023-01-30T21:54:01.733Z,61.6
2023-01-30T21:55:45.296Z,61.6
2023-01-30T21:57:29.184Z,61.5
2023-01-30T21:59:12.940Z,61.6
2023-01-30T22:00:56.527Z,61.5
2023-01-30T22:02:40.253Z,61.5
2023-01-30T22:04:23.958Z,61.5
2023-01-30T22:06:07.665Z,61.5
2023-01-30T22:07:51.372Z,61.4
2023-01-30T22:09:35.084Z,61.4
2023-01-30T22:11:18.786Z,61.4
2023-01-30T22:13:02.455Z,61.4
2023-01-30T22:14:46.180Z,61.4
2023-01-30T22:16:29.717Z,61.4
2023-01-30T22:18:13.600Z,61.4
2023-01-30T22:19:57.282Z,61.4
2023-01-30T22:21:40.981Z,61.3
2023-01-30T22:23:24.659Z,61.3
2023-01-30T22:25:08.469Z,61.3
2023-01-30T22:26:52.101Z,61.3
2023-01-30T22:28:35.764Z,61.3
2023-01-30T22:30:19.470Z,61.3
2023-01-30T22:32:03.196Z,61.3
2023-01-30T22:33:46.907Z,61.3
2023-01-30T22:35:30.550Z,61.3
2023-01-30T22:37:14.221Z,61.2
2023-01-30T22:38:57.976Z,61.2
2023-01-30T22:40:41.743Z,61.3
2023-01-30T22:42:25.368Z,61.5
2023-01-30T22:44:08.957Z,61.7
2023-01-30T22:45:52.702Z,61.8
2023-01-30T22:47:36.384Z,61.9
2023-01-30T22:49:20.068Z,62
2023-01-30T22:51:03.879Z,62
2023-01-30T22:52:47.472Z,62
2023-01-30T22:54:31.306Z,62
2023-01-30T22:56:14.947Z,62.1
2023-01-30T22:57:58.686Z,62.1
2023-01-30T22:59:42.293Z,62.2
2023-01-30T23:01:26.137Z,62.1
2023-01-30T23:03:09.805Z,62
2023-01-30T23:04:53.537Z,61.9
2023-01-30T23:06:37.245Z,61.9
2023-01-30T23:08:20.802Z,61.9
2023-01-30T23:10:04.563Z,61.9
2023-01-30T23:11:48.285Z,62
2023-01-30T23:13:31.954Z,62
2023-01-30T23:15:15.777Z,62
2023-01-30T23:16:59.472Z,62
2023-01-30T23:18:43.158Z,62
2023-01-30T23:20:26.928Z,62
2023-01-30T23:22:10.583Z,62.1